createdAt,value
2018-10-07T00:02:25.502Z,60.40
2018-10-07T00:04:53.824Z,60.40
2018-10-07T00:07:22.128Z,60.00
2018-10-07T00:09:50.445Z,59.80
2018-10-07T00:12:18.726Z,59.70
2018-10-07T00:14:47.060Z,60.10
2018-10-07T00:17:15.342Z,59.70
2018-10-07T00:19:43.625Z,60.20
2018-10-07T00:22:11.884Z,60.20
2018-10-07T00:24:40.169Z,60.00
2018-10-07T00:27:08.435Z,59.90
2018-10-07T00:29:36.724Z,60.10
2018-10-07T00:32:10.416Z,60.10
2018-10-07T00:34:38.752Z,60.10
2018-10-07T00:37:07.069Z,60.70
2018-10-07T00:39:35.342Z,60.80
2018-10-07T00:42:03.632Z,60.50
2018-10-07T00:44:32.104Z,59.90
2018-10-07T00:47:00.367Z,59.60
2018-10-07T00:49:28.714Z,59.50
2018-10-07T00:51:56.990Z,59.60
2018-10-07T00:54:25.310Z,59.90
2018-10-07T00:56:53.619Z,60.10
2018-10-07T00:59:21.989Z,60.00
2018-10-07T01:01:50.480Z,59.80
2018-10-07T01:04:18.754Z,60.00
2018-10-07T01:06:47.172Z,60.10
2018-10-07T01:09:15.616Z,59.90
2018-10-07T01:11:43.920Z,60.30
2018-10-07T01:14:12.226Z,60.80
2018-10-07T01:16:40.508Z,60.40
2018-10-07T01:19:08.870Z,60.00
2018-10-07T01:21:37.242Z,59.80
2018-10-07T01:24:05.523Z,59.80
2018-10-07T01:26:33.790Z,59.70
2018-10-07T01:29:02.094Z,59.90
2018-10-07T01:31:30.409Z,60.10
2018-10-07T01:33:58.668Z,59.90
2018-10-07T01:36:26.944Z,59.80
2018-10-07T01:38:55.208Z,59.90
2018-10-07T01:41:24.123Z,60.10
2018-10-07T01:43:52.389Z,59.90
2018-10-07T01:46:20.726Z,60.10
2018-10-07T01:48:49.017Z,60.70
2018-10-07T01:51:17.293Z,61.40
2018-10-07T01:53:45.564Z,60.40
2018-10-07T01:56:13.937Z,60.00
2018-10-07T01:58:42.228Z,59.90
2018-10-07T02:01:10.496Z,60.00
2018-10-07T02:03:38.810Z,60.10
2018-10-07T02:06:07.080Z,60.50
2018-10-07T02:08:35.347Z,60.40
2018-10-07T02:11:03.624Z,60.20
2018-10-07T02:13:31.972Z,60.10
2018-10-07T02:16:00.304Z,60.10
2018-10-07T02:18:28.572Z,60.10
2018-10-07T02:20:56.862Z,60.10
2018-10-07T02:23:25.136Z,60.50
2018-10-07T02:25:53.411Z,60.80
2018-10-07T02:28:21.767Z,60.60
2018-10-07T02:30:50.085Z,60.10
2018-10-07T02:33:18.601Z,60.00
2018-10-07T02:35:46.970Z,59.90
2018-10-07T02:38:15.251Z,59.90
2018-10-07T02:40:43.508Z,60.00
2018-10-07T02:43:12.020Z,60.50
2018-10-07T02:45:40.392Z,60.40
2018-10-07T02:48:08.744Z,60.30
2018-10-07T02:50:37.430Z,60.10
2018-10-07T02:53:05.780Z,60.20
2018-10-07T02:55:34.036Z,60.20
2018-10-07T02:58:04.033Z,60.10
2018-10-07T03:00:32.336Z,60.60
2018-10-07T03:03:00.592Z,60.70
2018-10-07T03:05:28.880Z,60.50
2018-10-07T03:07:57.195Z,60.00
2018-10-07T03:10:25.487Z,60.00
2018-10-07T03:12:53.692Z,59.90
2018-10-07T03:15:21.980Z,60.00
2018-10-07T03:17:50.264Z,60.30
2018-10-07T03:20:18.528Z,60.50
2018-10-07T03:22:46.840Z,60.30
2018-10-07T03:25:15.114Z,60.20
2018-10-07T03:27:43.390Z,60.30
2018-10-07T03:30:11.637Z,60.10
2018-10-07T03:32:39.902Z,60.10
2018-10-07T03:35:08.208Z,60.60
2018-10-07T03:37:36.479Z,60.90
2018-10-07T03:40:04.750Z,60.70
2018-10-07T03:42:33.002Z,60.10
2018-10-07T03:45:01.281Z,59.80
2018-10-07T03:47:29.549Z,59.70
2018-10-07T03:49:57.816Z,59.60
2018-10-07T03:52:26.087Z,59.90
2018-10-07T03:54:54.348Z,60.10
2018-10-07T03:57:22.649Z,60.00
2018-10-07T03:59:50.929Z,60.00
2018-10-07T04:02:19.203Z,60.00
2018-10-07T04:04:47.467Z,60.10
2018-10-07T04:07:15.747Z,60.00
2018-10-07T04:09:44.031Z,60.30
2018-10-07T04:12:12.287Z,60.90
2018-10-07T04:14:40.585Z,60.70
2018-10-07T04:17:08.865Z,60.40
2018-10-07T04:19:37.119Z,60.60
2018-10-07T04:22:05.391Z,60.30
2018-10-07T04:24:34.391Z,60.20
2018-10-07T04:27:02.667Z,60.40
2018-10-07T04:29:30.924Z,60.80
2018-10-07T04:31:59.214Z,60.70
2018-10-07T04:34:27.497Z,60.40
2018-10-07T04:36:55.754Z,59.90
2018-10-07T04:39:24.061Z,59.80
2018-10-07T04:41:52.344Z,59.80
2018-10-07T04:44:20.591Z,59.70
2018-10-07T04:46:48.855Z,60.20
2018-10-07T04:49:17.118Z,60.00
2018-10-07T04:51:45.395Z,60.00
2018-10-07T04:54:13.637Z,59.90
2018-10-07T04:56:41.925Z,60.10
2018-10-07T04:59:10.197Z,60.10
2018-10-07T05:01:38.493Z,60.10
2018-10-07T05:04:06.753Z,60.50
2018-10-07T05:06:36.087Z,60.80
2018-10-07T05:09:07.232Z,60.40
2018-10-07T05:11:36.158Z,59.90
2018-10-07T05:14:06.071Z,60.00
2018-10-07T05:16:41.207Z,59.90
2018-10-07T05:19:09.465Z,60.10
2018-10-07T05:21:37.738Z,60.30
2018-10-07T05:24:06.027Z,60.50
2018-10-07T05:26:34.306Z,60.40
2018-10-07T05:29:02.596Z,60.40
2018-10-07T05:31:30.872Z,60.40
2018-10-07T05:33:59.165Z,60.30
2018-10-07T05:36:27.443Z,60.30
2018-10-07T05:38:55.709Z,60.40
2018-10-07T05:41:23.968Z,60.90
2018-10-07T05:43:52.248Z,60.80
2018-10-07T05:46:20.525Z,60.40
2018-10-07T05:48:49.056Z,60.00
2018-10-07T05:51:17.320Z,60.00
2018-10-07T05:53:45.599Z,59.90
2018-10-07T05:56:13.904Z,59.90
2018-10-07T05:58:42.331Z,60.30
2018-10-07T06:01:18.637Z,60.20
2018-10-07T06:04:53.976Z,60.20
2018-10-07T06:07:23.019Z,60.10
2018-10-07T06:09:51.303Z,60.30
2018-10-07T06:12:19.582Z,60.20
2018-10-07T06:14:59.339Z,60.40
2018-10-07T06:17:27.553Z,60.90
2018-10-07T06:19:55.843Z,60.70
2018-10-07T06:22:24.411Z,60.40
2018-10-07T06:24:52.681Z,60.00
2018-10-07T06:27:20.955Z,59.90
2018-10-07T06:29:49.280Z,59.90
2018-10-07T06:32:17.521Z,60.00
2018-10-07T06:34:45.789Z,60.20
2018-10-07T06:37:14.073Z,60.00
2018-10-07T06:39:42.346Z,59.90
2018-10-07T06:42:10.613Z,59.90
2018-10-07T06:44:38.907Z,60.00
2018-10-07T06:47:08.106Z,60.00
2018-10-07T06:49:36.376Z,60.00
2018-10-07T06:52:04.673Z,60.40
2018-10-07T06:54:32.980Z,60.70
2018-10-07T06:57:01.297Z,60.50
2018-10-07T06:59:29.730Z,60.50
2018-10-07T07:01:58.035Z,60.40
2018-10-07T07:04:26.313Z,60.30
2018-10-07T07:06:54.631Z,60.30
2018-10-07T07:09:22.971Z,60.50
2018-10-07T07:11:51.248Z,60.80
2018-10-07T07:14:19.514Z,60.70
2018-10-07T07:16:47.871Z,60.30
2018-10-07T07:19:16.139Z,59.90
2018-10-07T07:21:44.429Z,59.80
2018-10-07T07:24:12.716Z,59.70
2018-10-07T07:26:40.995Z,59.70
2018-10-07T07:29:09.309Z,60.60
2018-10-07T07:31:37.585Z,60.00
2018-10-07T07:34:05.913Z,60.00
2018-10-07T07:36:34.306Z,60.00
2018-10-07T07:39:02.651Z,60.00
2018-10-07T07:41:30.935Z,59.90
2018-10-07T07:43:59.306Z,60.30
2018-10-07T07:46:27.654Z,60.50
2018-10-07T07:48:56.118Z,60.40
2018-10-07T07:51:24.405Z,59.90
2018-10-07T07:53:52.718Z,59.70
2018-10-07T07:56:21.027Z,59.80
2018-10-07T07:58:49.351Z,59.70
2018-10-07T08:01:17.629Z,59.90
2018-10-07T08:03:45.996Z,60.00
2018-10-07T08:06:14.279Z,60.00
2018-10-07T08:08:42.704Z,59.80
2018-10-07T08:11:11.029Z,59.80
2018-10-07T08:13:39.308Z,59.90
2018-10-07T08:16:08.370Z,59.90
2018-10-07T08:18:36.746Z,60.30
2018-10-07T08:21:05.020Z,60.40
2018-10-07T08:23:33.397Z,60.30
2018-10-07T08:26:01.672Z,60.40
2018-10-07T08:28:29.968Z,60.30
2018-10-07T08:30:58.260Z,60.20
2018-10-07T08:33:26.635Z,61.10
2018-10-07T08:35:55.015Z,60.20
2018-10-07T08:38:23.337Z,60.70
2018-10-07T08:40:51.744Z,60.60
2018-10-07T08:43:20.058Z,60.30
2018-10-07T08:45:48.402Z,60.00
2018-10-07T08:48:16.753Z,59.90
2018-10-07T08:50:45.221Z,59.80
2018-10-07T08:53:13.620Z,59.80
2018-10-07T08:55:41.933Z,60.00
2018-10-07T08:58:10.280Z,60.10
2018-10-07T09:00:38.597Z,60.00
2018-10-07T09:03:06.906Z,60.10
2018-10-07T09:05:35.200Z,60.70
2018-10-07T09:08:03.560Z,60.00
2018-10-07T09:10:31.860Z,60.20
2018-10-07T09:13:00.568Z,60.50
2018-10-07T09:15:28.876Z,60.30
2018-10-07T09:17:57.190Z,60.30
2018-10-07T09:20:25.477Z,60.20
2018-10-07T09:22:53.819Z,60.20
2018-10-07T09:25:22.160Z,60.20
2018-10-07T09:27:52.902Z,60.50
2018-10-07T09:30:21.245Z,60.70
2018-10-07T09:32:49.563Z,60.70
2018-10-07T09:35:17.866Z,60.40
2018-10-07T09:37:46.317Z,60.10
2018-10-07T09:40:14.820Z,60.70
2018-10-07T09:42:43.180Z,60.00
2018-10-07T09:45:11.481Z,60.20
2018-10-07T09:47:39.781Z,60.40
2018-10-07T09:50:08.058Z,60.20
2018-10-07T09:52:36.326Z,60.30
2018-10-07T09:55:04.656Z,60.20
2018-10-07T09:57:32.944Z,60.90
2018-10-07T10:00:01.305Z,60.20
2018-10-07T10:02:29.648Z,60.50
2018-10-07T10:04:57.989Z,60.90
2018-10-07T10:07:26.343Z,60.70
2018-10-07T10:09:54.656Z,60.40
2018-10-07T10:12:22.964Z,60.40
2018-10-07T10:14:51.342Z,60.20
2018-10-07T10:17:22.429Z,60.20
2018-10-07T10:20:11.615Z,60.30
2018-10-07T10:23:53.263Z,60.40
2018-10-07T10:26:30.917Z,60.30
2018-10-07T10:29:07.864Z,60.30
2018-10-07T10:31:44.721Z,60.20
2018-10-07T10:34:22.563Z,59.90
2018-10-07T10:37:03.697Z,60.30
2018-10-07T10:39:45.949Z,60.80
2018-10-07T10:42:23.490Z,60.70
2018-10-07T10:44:56.274Z,60.80
2018-10-07T10:47:33.102Z,60.40
2018-10-07T10:50:20.323Z,60.40
2018-10-07T10:53:04.073Z,60.40
2018-10-07T10:55:40.262Z,60.80
2018-10-07T10:58:18.745Z,61.10
2018-10-07T11:00:50.933Z,60.80
2018-10-07T11:03:27.171Z,60.50
2018-10-07T11:08:08.534Z,60.10
2018-10-07T11:10:50.074Z,60.00
2018-10-07T11:13:31.360Z,60.00
2018-10-07T11:16:14.830Z,60.10
2018-10-07T11:18:50.080Z,60.90
2018-10-07T11:21:53.648Z,60.10
2018-10-07T11:24:33.703Z,60.40
2018-10-07T11:27:08.172Z,60.80
2018-10-07T11:29:47.190Z,60.80
2018-10-07T11:32:20.440Z,60.70
2018-10-07T11:35:02.773Z,60.50
2018-10-07T11:38:10.678Z,60.60
2018-10-07T11:40:45.437Z,60.80
2018-10-07T11:43:28.176Z,61.40
2018-10-07T11:46:03.740Z,61.40
2018-10-07T11:48:43.557Z,61.20
2018-10-07T11:53:33.661Z,60.90
2018-10-07T11:56:01.943Z,60.80
2018-10-07T11:58:30.230Z,61.10
2018-10-07T12:00:58.867Z,61.30
2018-10-07T12:03:27.463Z,61.00
2018-10-07T12:05:56.678Z,61.00
2018-10-07T12:08:25.017Z,60.80
2018-10-07T12:10:53.490Z,60.80
2018-10-07T12:13:22.628Z,61.40
2018-10-07T12:15:50.904Z,61.00
2018-10-07T12:18:19.214Z,61.10
2018-10-07T12:20:47.560Z,61.00
2018-10-07T12:23:15.871Z,60.80
2018-10-07T12:25:44.142Z,60.70
2018-10-07T12:28:12.444Z,60.50
2018-10-07T12:30:40.796Z,60.70
2018-10-07T12:33:09.127Z,60.90
2018-10-07T12:35:37.445Z,60.90
2018-10-07T12:38:05.761Z,60.80
2018-10-07T12:40:34.067Z,60.80
2018-10-07T12:43:04.021Z,60.70
2018-10-07T12:45:32.321Z,60.70
2018-10-07T12:48:00.580Z,61.10
2018-10-07T12:50:28.864Z,61.40
2018-10-07T12:52:58.446Z,61.20
2018-10-07T12:55:26.721Z,61.30
2018-10-07T12:57:55.089Z,61.10
2018-10-07T13:00:23.421Z,61.10
2018-10-07T13:02:52.128Z,61.20
2018-10-07T13:05:24.452Z,61.50
2018-10-07T13:07:54.827Z,61.90
2018-10-07T13:10:24.922Z,61.70
2018-10-07T13:12:54.351Z,61.50
2018-10-07T13:15:24.990Z,62.00
2018-10-07T13:17:53.340Z,61.00
2018-10-07T13:20:21.658Z,61.20
2018-10-07T13:22:49.978Z,61.40
2018-10-07T13:25:18.276Z,61.40
2018-10-07T13:27:46.539Z,61.20
2018-10-07T13:30:14.864Z,61.50
2018-10-07T13:32:44.132Z,61.20
2018-10-07T13:35:12.428Z,61.20
2018-10-07T13:37:40.745Z,61.20
2018-10-07T13:40:09.024Z,61.70
2018-10-07T13:42:37.434Z,61.60
2018-10-07T13:45:05.720Z,61.90
2018-10-07T13:47:34.000Z,61.60
2018-10-07T13:50:02.424Z,61.70
2018-10-07T13:52:30.680Z,61.30
2018-10-07T13:54:59.002Z,61.40
2018-10-07T13:57:27.309Z,61.90
2018-10-07T13:59:55.609Z,61.70
2018-10-07T14:02:23.892Z,61.80
2018-10-07T14:04:52.166Z,61.60
2018-10-07T14:07:20.448Z,61.40
2018-10-07T14:09:48.736Z,61.80
2018-10-07T14:12:17.056Z,61.40
2018-10-07T14:14:45.333Z,62.30
2018-10-07T14:17:13.668Z,61.40
2018-10-07T14:19:42.508Z,61.50
2018-10-07T14:22:10.846Z,61.40
2018-10-07T14:24:39.159Z,61.20
2018-10-07T14:27:07.464Z,61.30
2018-10-07T14:29:35.772Z,61.30
2018-10-07T14:32:04.124Z,61.70
2018-10-07T14:34:32.492Z,61.90
2018-10-07T14:37:01.154Z,61.70
2018-10-07T14:39:29.460Z,61.40
2018-10-07T14:41:57.783Z,61.20
2018-10-07T14:44:26.987Z,61.20
2018-10-07T14:46:55.309Z,61.10
2018-10-07T14:49:23.619Z,61.60
2018-10-07T14:51:51.951Z,61.60
2018-10-07T14:54:20.256Z,61.50
2018-10-07T14:56:48.554Z,61.40
2018-10-07T14:59:16.828Z,61.20
2018-10-07T15:01:45.115Z,61.20
2018-10-07T15:04:13.420Z,61.20
2018-10-07T15:06:41.727Z,61.60
2018-10-07T15:09:11.325Z,61.60
2018-10-07T15:11:39.632Z,61.40
2018-10-07T15:14:08.281Z,61.10
2018-10-07T15:16:36.594Z,60.90
2018-10-07T15:19:05.016Z,60.90
2018-10-07T15:21:33.300Z,61.00
2018-10-07T15:24:01.728Z,61.00
2018-10-07T15:26:30.106Z,60.80
2018-10-07T15:28:59.285Z,60.80
2018-10-07T15:31:27.613Z,60.80
2018-10-07T15:33:55.980Z,60.80
2018-10-07T15:36:24.285Z,60.70
2018-10-07T15:38:52.608Z,60.90
2018-10-07T15:41:20.920Z,61.00
2018-10-07T15:43:49.247Z,60.90
2018-10-07T15:46:17.559Z,60.80
2018-10-07T15:48:45.898Z,60.70
2018-10-07T15:51:14.223Z,60.70
2018-10-07T15:53:42.536Z,60.60
2018-10-07T15:56:10.859Z,60.70
2018-10-07T15:58:39.176Z,60.90
2018-10-07T16:01:07.652Z,60.70
2018-10-07T16:03:35.964Z,60.70
2018-10-07T16:06:04.278Z,60.60
2018-10-07T16:08:32.602Z,60.50
2018-10-07T16:11:00.927Z,60.60
2018-10-07T16:13:29.283Z,60.90
2018-10-07T16:15:58.599Z,61.10
2018-10-07T16:18:26.965Z,60.90
2018-10-07T16:20:55.341Z,60.80
2018-10-07T16:23:23.773Z,60.60
2018-10-07T16:25:52.197Z,60.70
2018-10-07T16:28:20.638Z,60.60
2018-10-07T16:30:49.049Z,60.70
2018-10-07T16:33:18.041Z,60.80
2018-10-07T16:35:46.449Z,60.60
2018-10-07T16:38:15.587Z,60.60
2018-10-07T16:40:43.976Z,60.50
2018-10-07T16:43:12.321Z,60.40
2018-10-07T16:45:40.727Z,60.40
2018-10-07T16:48:09.210Z,60.80
2018-10-07T16:50:38.074Z,60.60
2018-10-07T16:53:13.086Z,60.30
2018-10-07T16:55:42.496Z,60.10
2018-10-07T16:58:10.822Z,59.90
2018-10-07T17:00:39.157Z,59.90
2018-10-07T17:03:07.545Z,60.00
2018-10-07T17:05:35.976Z,60.00
2018-10-07T17:08:10.747Z,59.90
2018-10-07T17:10:39.110Z,60.00
2018-10-07T17:13:09.684Z,60.10
2018-10-07T17:15:39.745Z,60.10
2018-10-07T17:18:08.197Z,60.10
2018-10-07T17:20:36.651Z,60.10
2018-10-07T17:23:05.052Z,59.90
2018-10-07T17:25:33.549Z,59.90
2018-10-07T17:28:01.952Z,59.90
2018-10-07T17:30:31.376Z,60.10
2018-10-07T17:32:59.913Z,60.10
2018-10-07T17:35:28.222Z,60.00
2018-10-07T17:37:56.540Z,60.00
2018-10-07T17:40:25.284Z,59.90
2018-10-07T17:42:53.736Z,59.90
2018-10-07T17:45:22.548Z,59.60
2018-10-07T17:47:50.977Z,59.50
2018-10-07T17:50:19.362Z,59.50
2018-10-07T17:52:47.820Z,59.60
2018-10-07T17:55:16.357Z,59.60
2018-10-07T17:57:44.760Z,59.50
2018-10-07T18:00:19.541Z,59.50
2018-10-07T18:02:48.152Z,59.60
2018-10-07T18:05:16.444Z,59.70
2018-10-07T18:07:44.986Z,59.70
2018-10-07T18:10:13.393Z,59.70
2018-10-07T18:12:41.878Z,59.80
2018-10-07T18:15:10.303Z,59.70
2018-10-07T18:17:39.327Z,59.50
2018-10-07T18:20:08.743Z,59.30
2018-10-07T18:22:37.151Z,59.30
2018-10-07T18:25:05.771Z,59.20
2018-10-07T18:27:34.190Z,59.40
2018-10-07T18:30:02.729Z,59.40
2018-10-07T18:32:32.027Z,59.30
2018-10-07T18:35:00.823Z,59.20
2018-10-07T18:37:29.223Z,59.40
2018-10-07T18:39:58.825Z,59.60
2018-10-07T18:42:28.074Z,59.50
2018-10-07T18:44:56.442Z,59.50
2018-10-07T18:47:25.589Z,59.50
2018-10-07T18:49:54.004Z,60.00
2018-10-07T18:52:22.781Z,59.40
2018-10-07T18:54:51.221Z,59.40
2018-10-07T18:57:19.626Z,59.40
2018-10-07T18:59:48.131Z,59.40
2018-10-07T19:02:16.643Z,59.40
2018-10-07T19:04:45.237Z,59.30
2018-10-07T19:07:13.635Z,59.20
2018-10-07T19:09:43.945Z,58.80
2018-10-07T19:12:12.365Z,58.40
2018-10-07T19:14:40.956Z,58.30
2018-10-07T19:17:09.407Z,58.30
2018-10-07T19:19:37.836Z,58.40
2018-10-07T19:22:06.252Z,58.60
2018-10-07T19:24:34.958Z,58.80
2018-10-07T19:27:03.996Z,58.70
2018-10-07T19:29:32.473Z,58.90
2018-10-07T19:32:00.892Z,58.80
2018-10-07T19:34:29.305Z,58.70
2018-10-07T19:36:57.889Z,58.80
2018-10-07T19:39:26.239Z,58.90
2018-10-07T19:41:54.629Z,58.90
2018-10-07T19:44:23.702Z,59.00
2018-10-07T19:46:52.781Z,58.90
2018-10-07T19:49:21.222Z,58.90
2018-10-07T19:51:50.628Z,58.70
2018-10-07T19:54:19.634Z,58.60
2018-10-07T19:56:48.292Z,58.30
2018-10-07T19:59:17.575Z,58.20
2018-10-07T20:01:45.960Z,58.30
2018-10-07T20:04:14.705Z,58.40
2018-10-07T20:06:43.120Z,58.40
2018-10-07T20:09:12.131Z,58.40
2018-10-07T20:11:41.177Z,58.40
2018-10-07T20:14:10.001Z,58.50
2018-10-07T20:16:39.033Z,58.70
2018-10-07T20:19:07.504Z,58.70
2018-10-07T20:21:35.958Z,58.70
2018-10-07T20:24:04.370Z,59.20
2018-10-07T20:26:32.780Z,59.50
2018-10-07T20:29:01.231Z,59.40
2018-10-07T20:31:29.742Z,59.30
2018-10-07T20:33:58.229Z,59.40
2018-10-07T20:36:26.650Z,59.20
2018-10-07T20:38:55.079Z,59.10
2018-10-07T20:41:23.459Z,59.60
2018-10-07T20:43:51.831Z,59.30
2018-10-07T20:46:20.242Z,59.70
2018-10-07T20:48:53.308Z,59.40
2018-10-07T20:51:21.727Z,59.40
2018-10-07T20:53:50.086Z,59.30
2018-10-07T20:56:18.455Z,59.30
2018-10-07T20:58:47.734Z,59.90
2018-10-07T21:01:17.068Z,59.90
2018-10-07T21:03:45.397Z,60.10
2018-10-07T21:06:13.771Z,59.80
2018-10-07T21:08:42.082Z,59.70
2018-10-07T21:11:10.394Z,59.70
2018-10-07T21:13:39.007Z,59.50
2018-10-07T21:16:07.336Z,59.90
2018-10-07T21:18:36.163Z,59.90
2018-10-07T21:21:04.525Z,59.90
2018-10-07T21:23:32.826Z,59.70
2018-10-07T21:26:01.975Z,59.50
2018-10-07T21:28:30.308Z,59.40
2018-10-07T21:30:58.621Z,59.60
2018-10-07T21:33:26.922Z,60.30
2018-10-07T21:35:55.212Z,60.20
2018-10-07T21:38:23.512Z,60.00
2018-10-07T21:40:51.797Z,60.00
2018-10-07T21:43:20.104Z,59.70
2018-10-07T21:45:48.404Z,59.90
2018-10-07T21:48:16.794Z,59.90
2018-10-07T21:50:45.104Z,60.10
2018-10-07T21:53:13.402Z,59.90
2018-10-07T21:55:41.745Z,60.00
2018-10-07T21:58:10.043Z,59.70
2018-10-07T22:00:38.340Z,59.60
2018-10-07T22:03:06.693Z,59.60
2018-10-07T22:05:35.027Z,60.00
2018-10-07T22:08:03.308Z,60.50
2018-10-07T22:10:31.860Z,60.30
2018-10-07T22:13:00.250Z,60.10
2018-10-07T22:15:28.530Z,60.10
2018-10-07T22:17:57.343Z,59.90
2018-10-07T22:20:25.636Z,59.80
2018-10-07T22:22:54.210Z,60.00
2018-10-07T22:25:22.493Z,60.20
2018-10-07T22:27:50.807Z,60.10
2018-10-07T22:30:19.594Z,60.00
2018-10-07T22:32:47.850Z,59.80
2018-10-07T22:35:16.161Z,59.70
2018-10-07T22:37:45.150Z,59.70
2018-10-07T22:40:13.421Z,60.40
2018-10-07T22:42:41.715Z,60.60
2018-10-07T22:45:10.922Z,60.40
2018-10-07T22:47:40.140Z,60.30
2018-10-07T22:50:08.404Z,60.00
2018-10-07T22:52:36.723Z,60.00
2018-10-07T22:55:05.028Z,59.90
2018-10-07T22:57:33.299Z,60.40
2018-10-07T23:00:01.629Z,60.40
2018-10-07T23:02:29.924Z,60.20
2018-10-07T23:04:58.189Z,60.20
2018-10-07T23:07:26.480Z,59.90
2018-10-07T23:09:54.774Z,59.80
2018-10-07T23:12:23.052Z,59.80
2018-10-07T23:14:51.343Z,60.70
2018-10-07T23:17:19.635Z,60.60
2018-10-07T23:19:47.916Z,60.30
2018-10-07T23:22:16.183Z,60.30
2018-10-07T23:24:44.452Z,60.00
2018-10-07T23:27:12.724Z,60.20
2018-10-07T23:29:40.980Z,59.90
2018-10-07T23:32:09.284Z,60.50
2018-10-07T23:34:37.546Z,60.30
2018-10-07T23:37:05.833Z,60.30
2018-10-07T23:39:34.099Z,60.20
2018-10-07T23:42:02.413Z,60.10
2018-10-07T23:44:30.676Z,59.90
2018-10-07T23:46:58.946Z,60.40
2018-10-07T23:49:27.236Z,60.90
2018-10-07T23:51:55.862Z,60.90
2018-10-07T23:54:24.165Z,60.50
2018-10-07T23:56:52.724Z,60.40
2018-10-07T23:59:20.997Z,60.00
